Time;durP1;ratioP1;P1;durP2;ratioP2;P2;SDS_P1;SDS_P2;PMS_P1;PMS_P2;Temp;Humidity;BMP_temperature;BMP_pressure;BME280_temperature;BME280_humidity;BME280_pressure;Samples;Min_cycle;Max_cycle;Signal;HPM_P1;HPM_P2
2021/03/29 00:00:06;;;;;;;23.38;13.90;;;12.20;99.90;;;;;;5071076;28;20120;-74
2021/03/29 00:02:32;;;;;;;24.17;14.23;;;12.20;99.90;;;;;;5069804;28;20163;-74
2021/03/29 00:04:58;;;;;;;25.90;14.93;;;12.20;99.90;;;;;;5073401;28;20123;-75
2021/03/29 00:07:25;;;;;;;21.67;13.48;;;12.10;99.90;;;;;;5074090;28;20036;-75
2021/03/29 00:09:52;;;;;;;21.35;13.95;;;12.10;99.90;;;;;;5075340;28;20056;-75
2021/03/29 00:12:19;;;;;;;27.40;14.38;;;12.10;99.90;;;;;;5074969;28;20035;-74
2021/03/29 00:14:46;;;;;;;22.67;14.68;;;12.10;99.90;;;;;;5075057;28;20051;-75
2021/03/29 00:17:15;;;;;;;16.45;11.65;;;12.20;99.90;;;;;;5074091;28;20426;-76
2021/03/29 00:19:42;;;;;;;24.83;12.20;;;12.20;99.90;;;;;;5073249;28;20072;-75
2021/03/29 00:22:08;;;;;;;19.35;11.40;;;12.20;99.90;;;;;;5074553;28;20025;-75
2021/03/29 00:24:35;;;;;;;19.92;12.35;;;12.20;99.90;;;;;;5074967;28;20059;-75
2021/03/29 00:27:02;;;;;;;16.63;11.55;;;12.10;99.90;;;;;;5073302;28;20086;-75
2021/03/29 00:29:28;;;;;;;17.83;11.75;;;12.10;99.90;;;;;;5074513;28;20106;-76
2021/03/29 00:31:55;;;;;;;19.00;11.70;;;12.00;99.90;;;;;;5074043;28;20032;-75
2021/03/29 00:34:21;;;;;;;15.55;11.68;;;12.00;99.90;;;;;;5074543;28;20028;-75
2021/03/29 00:36:48;;;;;;;17.80;11.52;;;12.00;99.90;;;;;;5072279;28;20039;-76
2021/03/29 00:39:15;;;;;;;14.05;11.45;;;12.00;99.90;;;;;;5056218;28;20052;-74
2021/03/29 00:41:42;;;;;;;14.95;10.43;;;12.00;99.90;;;;;;5072008;28;20024;-75
2021/03/29 00:44:09;;;;;;;24.00;12.38;;;12.00;99.90;;;;;;5074376;28;20354;-75
2021/03/29 00:46:37;;;;;;;22.02;12.68;;;12.10;99.90;;;;;;5074120;28;20470;-75
2021/03/29 00:49:03;;;;;;;22.70;12.35;;;12.10;99.90;;;;;;5074707;28;20029;-74
2021/03/29 00:51:31;;;;;;;18.58;11.75;;;12.10;99.90;;;;;;5073721;28;20116;-74
2021/03/29 00:53:59;;;;;;;18.10;11.63;;;12.10;99.90;;;;;;5073374;28;20029;-75
2021/03/29 00:56:26;;;;;;;17.60;12.23;;;12.20;99.90;;;;;;5073366;28;20032;-75
2021/03/29 00:58:53;;;;;;;15.63;10.73;;;12.20;99.90;;;;;;5074183;28;20443;-75
2021/03/29 01:01:28;;;;;;;18.23;11.63;;;12.20;99.90;;;;;;5073526;28;20094;-75
2021/03/29 01:03:58;;;;;;;17.48;11.95;;;12.30;99.90;;;;;;5073499;28;20036;-74
2021/03/29 01:06:27;;;;;;;18.00;12.07;;;12.20;99.90;;;;;;5072450;28;20651;-75
2021/03/29 01:08:57;;;;;;;17.75;12.35;;;12.20;99.90;;;;;;5073624;28;20036;-75
2021/03/29 01:11:26;;;;;;;17.73;12.10;;;12.20;99.90;;;;;;5072942;28;20020;-73
2021/03/29 01:14:01;;;;;;;22.00;12.13;;;12.20;99.90;;;;;;5071755;28;20036;-72
2021/03/29 01:16:32;;;;;;;20.23;11.98;;;12.20;99.90;;;;;;5071205;28;20116;-75
2021/03/29 01:18:59;;;;;;;15.25;11.85;;;12.20;99.90;;;;;;5072609;28;20519;-73
2021/03/29 01:21:42;;;;;;;14.88;11.35;;;12.20;99.90;;;;;;5072613;28;20119;-72
2021/03/29 01:24:16;;;;;;;18.15;11.57;;;12.20;99.90;;;;;;5072690;28;20126;-75
2021/03/29 01:26:44;;;;;;;16.42;13.10;;;12.20;99.90;;;;;;5073417;28;20024;-74
2021/03/29 01:29:12;;;;;;;19.13;13.18;;;12.10;99.90;;;;;;5073438;28;20699;-76
2021/03/29 01:31:39;;;;;;;18.67;13.27;;;12.20;99.90;;;;;;5073131;28;20065;-76
2021/03/29 01:34:06;;;;;;;20.42;14.30;;;12.10;99.90;;;;;;5072943;28;20029;-73
2021/03/29 01:36:33;;;;;;;18.23;12.90;;;12.10;99.90;;;;;;5072518;28;20554;-74
2021/03/29 01:39:00;;;;;;;21.00;13.27;;;12.10;99.90;;;;;;5073544;28;20056;-75
2021/03/29 01:41:27;;;;;;;18.58;12.30;;;12.10;99.90;;;;;;5073290;28;20091;-73
2021/03/29 01:43:53;;;;;;;14.73;12.45;;;12.10;99.90;;;;;;5073667;28;20029;-74
2021/03/29 01:46:19;;;;;;;19.63;12.32;;;12.10;99.90;;;;;;5072553;28;20035;-74
2021/03/29 01:48:45;;;;;;;19.73;13.07;;;12.00;99.90;;;;;;5073337;28;20063;-74
2021/03/29 01:51:14;;;;;;;19.60;13.10;;;12.00;99.90;;;;;;5072647;28;20036;-74
2021/03/29 01:53:43;;;;;;;19.45;13.15;;;12.00;99.90;;;;;;5072577;28;20028;-74
2021/03/29 01:56:10;;;;;;;21.88;13.55;;;12.00;99.90;;;;;;5072764;28;20032;-73
2021/03/29 01:58:36;;;;;;;24.08;14.20;;;12.00;99.90;;;;;;5072909;28;20044;-74
2021/03/29 02:01:05;;;;;;;20.92;14.70;;;12.00;99.90;;;;;;5073094;28;20062;-74
2021/03/29 02:03:32;;;;;;;22.52;14.75;;;12.00;99.90;;;;;;5072570;28;20144;-76
2021/03/29 02:06:01;;;;;;;20.88;14.20;;;11.90;99.90;;;;;;5072432;28;20027;-73
2021/03/29 02:08:28;;;;;;;23.85;13.60;;;11.90;99.90;;;;;;5072731;28;20039;-74
2021/03/29 02:10:56;;;;;;;22.25;14.68;;;11.90;99.90;;;;;;5072252;28;20032;-74
2021/03/29 02:13:27;;;;;;;26.15;14.40;;;11.90;99.90;;;;;;5071938;28;20115;-73
2021/03/29 02:16:02;;;;;;;27.35;15.35;;;11.90;99.90;;;;;;5071575;28;20567;-73
2021/03/29 02:18:32;;;;;;;21.45;13.75;;;11.80;99.90;;;;;;5072666;28;20041;-75
2021/03/29 02:21:04;;;;;;;22.13;13.38;;;11.80;99.90;;;;;;5071214;28;20016;-74
2021/03/29 02:23:31;;;;;;;17.83;13.20;;;11.80;99.90;;;;;;5052929;28;20033;-76
2021/03/29 02:25:59;;;;;;;19.00;13.20;;;11.80;99.90;;;;;;5071242;28;20047;-73
2021/03/29 02:28:25;;;;;;;26.42;14.85;;;11.80;99.90;;;;;;5072224;28;20152;-73
2021/03/29 02:30:52;;;;;;;17.85;13.57;;;11.70;99.90;;;;;;5072234;28;20158;-74
2021/03/29 02:33:18;;;;;;;21.95;13.70;;;11.80;99.90;;;;;;5071974;28;20107;-74
2021/03/29 02:35:45;;;;;;;21.05;13.43;;;11.70;99.90;;;;;;5071696;28;20051;-74
2021/03/29 02:38:17;;;;;;;20.92;14.57;;;11.70;99.90;;;;;;5071853;28;20041;-75
2021/03/29 02:40:45;;;;;;;19.23;13.07;;;11.60;99.90;;;;;;5072041;28;20116;-73
2021/03/29 02:43:12;;;;;;;18.98;13.63;;;11.50;99.90;;;;;;5071141;28;20028;-73
2021/03/29 02:45:42;;;;;;;18.48;13.63;;;11.50;99.90;;;;;;5071789;28;20493;-73
2021/03/29 02:48:11;;;;;;;22.85;14.45;;;11.50;99.90;;;;;;5071838;28;20048;-73
2021/03/29 02:50:41;;;;;;;31.10;14.20;;;11.40;99.90;;;;;;5072208;28;20035;-75
2021/03/29 02:53:15;;;;;;;17.13;13.27;;;11.40;99.90;;;;;;5071673;28;20040;-73
2021/03/29 02:55:43;;;;;;;17.40;12.93;;;11.40;99.90;;;;;;5053841;28;20481;-73
2021/03/29 02:58:12;;;;;;;19.65;13.98;;;11.40;99.90;;;;;;5071274;28;20110;-73
2021/03/29 03:00:39;;;;;;;17.98;13.02;;;11.40;99.90;;;;;;5071730;28;20380;-73
2021/03/29 03:03:06;;;;;;;23.15;14.23;;;11.40;99.90;;;;;;5072200;28;20033;-73
2021/03/29 03:05:34;;;;;;;20.27;13.23;;;11.40;99.90;;;;;;5071332;28;20025;-74
2021/03/29 03:08:01;;;;;;;22.25;13.63;;;11.40;99.90;;;;;;5071647;28;20040;-73
2021/03/29 03:10:29;;;;;;;22.02;13.90;;;11.30;99.90;;;;;;5070772;28;20505;-72
2021/03/29 03:12:57;;;;;;;17.73;13.45;;;11.40;99.90;;;;;;5071468;28;20025;-72
2021/03/29 03:15:26;;;;;;;19.55;14.95;;;11.40;99.90;;;;;;5071456;28;20060;-72
2021/03/29 03:17:53;;;;;;;17.45;14.10;;;11.40;99.90;;;;;;5071143;28;20033;-73
2021/03/29 03:20:19;;;;;;;17.30;14.13;;;11.40;99.90;;;;;;5071459;28;20024;-74
2021/03/29 03:22:55;;;;;;;25.90;15.02;;;11.40;99.90;;;;;;5071168;28;20022;-73
2021/03/29 03:25:28;;;;;;;21.05;14.00;;;11.40;99.90;;;;;;5071455;28;20437;-73
2021/03/29 03:27:54;;;;;;;26.35;15.35;;;11.40;99.90;;;;;;5053093;28;20025;-73
2021/03/29 03:30:25;;;;;;;23.40;14.73;;;11.40;99.90;;;;;;5071420;28;20056;-73
2021/03/29 03:32:51;;;;;;;25.15;15.27;;;11.30;99.90;;;;;;5071346;28;20143;-73
2021/03/29 03:35:19;;;;;;;26.85;14.70;;;11.30;99.90;;;;;;5053454;28;20052;-73
2021/03/29 03:37:59;;;;;;;25.08;14.80;;;11.30;99.90;;;;;;5071652;28;20032;-73
2021/03/29 03:40:26;;;;;;;16.17;13.35;;;11.30;99.90;;;;;;5074463;28;20387;-73
2021/03/29 03:42:56;;;;;;;29.33;15.35;;;11.20;99.90;;;;;;5074443;28;20028;-73
2021/03/29 03:45:28;;;;;;;26.30;15.88;;;11.30;99.90;;;;;;5075548;28;20028;-74
2021/03/29 03:47:55;;;;;;;29.20;15.40;;;11.30;99.90;;;;;;5075889;28;20108;-73
2021/03/29 03:50:22;;;;;;;27.00;15.98;;;11.30;99.90;;;;;;5075662;28;20029;-73
2021/03/29 03:52:49;;;;;;;25.90;16.30;;;11.30;99.90;;;;;;5074978;28;20043;-73
2021/03/29 03:55:16;;;;;;;29.23;15.93;;;11.30;99.90;;;;;;5075270;28;20516;-73
2021/03/29 03:57:43;;;;;;;22.40;15.50;;;11.30;99.90;;;;;;5074620;28;20071;-74
2021/03/29 04:00:15;;;;;;;24.15;15.95;;;11.30;99.90;;;;;;5074927;28;20040;-76
2021/03/29 04:02:41;;;;;;;23.67;15.05;;;11.20;99.90;;;;;;5065797;28;20478;-73
2021/03/29 04:05:14;;;;;;;21.40;15.52;;;11.20;99.90;;;;;;5070346;28;20033;-73
2021/03/29 04:07:40;;;;;;;23.40;16.27;;;11.20;99.90;;;;;;5074992;28;20028;-73
2021/03/29 04:10:15;;;;;;;27.98;16.73;;;11.20;99.90;;;;;;5074788;28;20469;-73
2021/03/29 04:12:43;;;;;;;24.95;16.20;;;11.20;99.90;;;;;;5073966;28;20036;-74
2021/03/29 04:15:10;;;;;;;25.88;16.25;;;11.20;99.90;;;;;;5074301;28;20021;-73
2021/03/29 04:17:35;;;;;;;24.05;16.10;;;11.20;99.90;;;;;;5074012;28;20477;-73
2021/03/29 04:20:01;;;;;;;26.33;16.55;;;11.30;99.90;;;;;;5074276;28;20047;-73
2021/03/29 04:22:27;;;;;;;23.80;16.08;;;11.20;99.90;;;;;;5062274;28;20473;-74
2021/03/29 04:24:53;;;;;;;24.17;15.70;;;11.30;99.90;;;;;;5074288;28;20035;-75
2021/03/29 04:27:18;;;;;;;29.17;16.25;;;11.30;99.90;;;;;;5074908;28;20067;-73
2021/03/29 04:29:44;;;;;;;25.25;16.05;;;11.30;99.90;;;;;;5074774;28;20024;-72
2021/03/29 04:32:10;;;;;;;25.35;16.45;;;11.20;99.90;;;;;;5074231;28;20477;-73
2021/03/29 04:34:36;;;;;;;25.65;16.85;;;11.20;99.90;;;;;;5074393;28;20060;-73
2021/03/29 04:37:02;;;;;;;26.40;16.98;;;11.30;99.90;;;;;;5073652;28;20024;-74
2021/03/29 04:39:28;;;;;;;26.65;16.80;;;11.20;99.90;;;;;;5073695;28;20045;-73
2021/03/29 04:41:53;;;;;;;28.63;19.00;;;11.30;99.90;;;;;;5073061;28;20115;-75
2021/03/29 04:44:19;;;;;;;26.27;19.15;;;11.30;99.90;;;;;;5074247;28;20180;-74
2021/03/29 04:46:45;;;;;;;34.17;21.13;;;11.30;99.90;;;;;;5056619;28;20175;-74
2021/03/29 04:49:10;;;;;;;30.27;19.92;;;11.30;99.90;;;;;;5073955;28;20517;-76
2021/03/29 04:51:36;;;;;;;31.67;18.67;;;11.30;99.90;;;;;;5073590;28;20052;-76
2021/03/29 04:54:02;;;;;;;35.28;19.23;;;11.30;99.90;;;;;;5074217;28;20396;-76
2021/03/29 04:56:28;;;;;;;34.88;19.27;;;11.30;99.90;;;;;;5074055;28;20041;-77
2021/03/29 04:58:53;;;;;;;38.95;20.92;;;11.30;99.90;;;;;;5074391;28;20041;-73
2021/03/29 05:01:19;;;;;;;35.30;22.30;;;11.30;99.90;;;;;;5073528;28;20035;-75
2021/03/29 05:03:45;;;;;;;39.58;23.98;;;11.30;99.90;;;;;;5073840;28;20032;-76
2021/03/29 05:06:10;;;;;;;42.20;24.13;;;11.40;99.90;;;;;;5073208;28;20041;-77
2021/03/29 05:08:36;;;;;;;33.28;23.38;;;11.40;99.90;;;;;;5073506;28;20032;-77
2021/03/29 05:11:02;;;;;;;38.70;24.02;;;11.50;99.90;;;;;;5073763;28;20060;-76
2021/03/29 05:13:27;;;;;;;44.03;25.63;;;11.50;99.90;;;;;;5073092;28;20024;-76
2021/03/29 05:15:53;;;;;;;37.83;24.70;;;11.50;99.90;;;;;;5074262;28;20129;-76
2021/03/29 05:18:19;;;;;;;37.38;23.63;;;11.50;99.90;;;;;;5073430;28;20032;-74
2021/03/29 05:20:44;;;;;;;34.08;22.38;;;11.60;99.90;;;;;;5072160;28;20388;-76
2021/03/29 05:23:10;;;;;;;41.17;22.25;;;11.60;99.90;;;;;;5073751;28;20025;-73
2021/03/29 05:25:36;;;;;;;33.67;22.45;;;11.60;99.90;;;;;;5073383;28;20056;-74
2021/03/29 05:28:02;;;;;;;38.30;20.83;;;11.70;99.90;;;;;;5073550;28;20380;-75
2021/03/29 05:30:28;;;;;;;33.10;21.05;;;11.90;99.90;;;;;;5071824;28;20045;-73
2021/03/29 05:32:53;;;;;;;29.85;19.60;;;12.10;99.90;;;;;;5070859;28;20029;-73
2021/03/29 05:35:19;;;;;;;27.42;18.50;;;12.30;99.90;;;;;;5073057;28;20044;-76
2021/03/29 05:37:45;;;;;;;25.77;17.85;;;12.50;99.90;;;;;;5072815;28;20500;-75
2021/03/29 05:40:16;;;;;;;29.88;18.63;;;12.80;99.90;;;;;;5073243;28;20029;-73
2021/03/29 05:42:42;;;;;;;38.65;18.02;;;13.00;99.90;;;;;;5061786;28;20060;-74
2021/03/29 05:45:10;;;;;;;38.72;17.30;;;13.10;99.90;;;;;;5072736;28;20500;-74
2021/03/29 05:47:37;;;;;;;32.15;17.85;;;13.40;99.90;;;;;;5061023;28;20032;-76
2021/03/29 05:50:14;;;;;;;34.72;18.38;;;13.60;99.90;;;;;;5072285;28;20119;-74
2021/03/29 05:52:41;;;;;;;33.35;18.40;;;13.90;99.90;;;;;;5070383;28;20047;-75
2021/03/29 05:55:12;;;;;;;37.03;17.60;;;14.00;99.90;;;;;;5071187;28;20127;-75
2021/03/29 05:58:35;;;;;;;37.35;18.85;;;14.00;99.90;;;;;;5070925;28;20040;-73
2021/03/29 06:00:42;;;;;;;32.17;19.13;;;14.00;99.90;;;;;;5062438;28;20041;-74
2021/03/29 06:03:36;;;;;;;32.45;18.95;;;13.80;99.90;;;;;;5070669;28;20119;-73
2021/03/29 06:06:14;;;;;;;30.30;18.55;;;14.00;99.90;;;;;;5070755;28;20032;-72
2021/03/29 06:08:51;;;;;;;38.00;18.50;;;14.20;99.90;;;;;;5071861;28;20071;-73
2021/03/29 06:11:20;;;;;;;34.55;19.95;;;14.30;99.90;;;;;;5070722;28;20152;-73
2021/03/29 06:13:46;;;;;;;33.05;19.42;;;14.30;99.90;;;;;;5072556;28;20497;-75
2021/03/29 06:16:12;;;;;;;35.05;16.98;;;14.30;99.90;;;;;;5071830;28;20509;-73
2021/03/29 06:18:48;;;;;;;41.58;18.95;;;14.30;99.90;;;;;;5071288;28;20123;-73
2021/03/29 06:21:17;;;;;;;28.33;18.77;;;14.50;99.90;;;;;;5071069;28;20032;-73
2021/03/29 06:23:58;;;;;;;26.58;16.67;;;14.70;99.90;;;;;;5071048;28;20030;-73
2021/03/29 06:26:29;;;;;;;29.30;17.92;;;14.80;99.90;;;;;;5060557;28;20035;-73
2021/03/29 06:28:55;;;;;;;25.73;17.30;;;15.00;99.90;;;;;;5072554;28;20039;-73
2021/03/29 06:31:27;;;;;;;31.27;18.30;;;15.10;99.90;;;;;;5071507;28;20098;-73
2021/03/29 06:33:54;;;;;;;30.00;18.52;;;15.30;99.90;;;;;;5072193;28;20384;-73
2021/03/29 06:36:38;;;;;;;37.88;17.85;;;15.40;99.90;;;;;;5057938;28;20027;-74
2021/03/29 06:39:23;;;;;;;26.98;17.52;;;15.70;99.90;;;;;;5072306;28;20500;-73
2021/03/29 06:41:56;;;;;;;26.27;17.30;;;16.20;99.90;;;;;;5071750;28;20059;-73
2021/03/29 06:44:30;;;;;;;26.58;17.67;;;16.60;99.90;;;;;;5071641;28;20044;-73
2021/03/29 06:47:14;;;;;;;32.08;17.40;;;16.90;99.90;;;;;;5053688;28;20119;-73
2021/03/29 06:49:47;;;;;;;33.42;17.95;;;17.30;99.90;;;;;;5065880;28;20027;-73
2021/03/29 06:52:20;;;;;;;34.47;15.48;;;17.70;99.90;;;;;;5071733;28;20044;-74
2021/03/29 06:54:45;;;;;;;40.10;17.90;;;18.10;99.90;;;;;;5070718;28;20547;-74
2021/03/29 06:57:11;;;;;;;33.25;16.25;;;18.50;99.90;;;;;;5069772;28;20044;-76
2021/03/29 06:59:37;;;;;;;38.70;18.13;;;18.90;99.90;;;;;;5071149;28;20041;-74
2021/03/29 07:02:07;;;;;;;47.13;19.10;;;19.20;99.90;;;;;;5050221;28;20044;-73
2021/03/29 07:04:35;;;;;;;40.85;17.90;;;19.30;99.90;;;;;;5056545;28;20465;-72
2021/03/29 07:07:03;;;;;;;28.20;15.52;;;19.30;99.90;;;;;;5069033;28;20032;-74
2021/03/29 07:09:33;;;;;;;25.08;14.55;;;19.30;99.90;;;;;;5069164;28;20383;-73
2021/03/29 07:12:00;;;;;;;21.98;13.60;;;19.60;99.90;;;;;;5070831;28;20029;-73
2021/03/29 07:14:27;;;;;;;18.73;12.88;;;19.90;99.90;;;;;;5069704;28;20036;-73
2021/03/29 07:16:55;;;;;;;25.58;12.82;;;20.10;99.90;;;;;;5069700;28;20446;-73
2021/03/29 07:19:23;;;;;;;25.25;12.40;;;20.10;99.90;;;;;;5069196;28;20052;-73
2021/03/29 07:21:48;;;;;;;17.40;13.43;;;20.10;99.90;;;;;;5065432;28;20063;-73
2021/03/29 07:24:15;;;;;;;18.90;11.38;;;20.50;99.90;;;;;;5061286;28;20067;-73
2021/03/29 07:26:54;;;;;;;23.45;12.10;;;20.90;99.90;;;;;;5069345;28;20025;-73
2021/03/29 07:29:24;;;;;;;19.05;11.95;;;21.30;99.90;;;;;;5069427;28;20497;-74
2021/03/29 07:31:53;;;;;;;28.02;11.82;;;21.60;99.90;;;;;;5068817;28;20469;-73
2021/03/29 07:34:50;;;;;;;14.80;10.55;;;21.90;99.90;;;;;;5068770;28;20036;-73
2021/03/29 07:37:41;;;;;;;18.52;10.63;;;22.10;99.90;;;;;;5068196;28;20393;-73
2021/03/29 07:40:20;;;;;;;20.85;11.15;;;22.20;99.90;;;;;;5070553;28;20142;-73
2021/03/29 07:42:51;;;;;;;21.98;9.90;;;22.50;99.90;;;;;;5070918;28;20032;-73
2021/03/29 07:45:19;;;;;;;17.95;10.60;;;22.70;99.90;;;;;;5067915;28;20102;-73
2021/03/29 07:48:03;;;;;;;11.98;8.20;;;22.80;99.90;;;;;;5069284;28;20029;-75
2021/03/29 07:50:29;;;;;;;16.42;9.15;;;23.00;99.90;;;;;;5069750;28;20071;-74
2021/03/29 07:52:57;;;;;;;19.35;8.98;;;23.40;99.90;;;;;;5069407;28;20032;-74
2021/03/29 07:55:24;;;;;;;17.20;9.65;;;23.60;99.90;;;;;;5069572;28;20509;-76
2021/03/29 07:57:50;;;;;;;19.60;9.27;;;24.00;99.90;;;;;;5069653;28;20139;-75
2021/03/29 08:00:25;;;;;;;19.30;9.65;;;24.10;99.90;;;;;;5069943;28;20544;-74
2021/03/29 08:02:58;;;;;;;25.20;10.48;;;24.20;99.90;;;;;;5065720;28;20130;-73
2021/03/29 08:05:37;;;;;;;22.35;9.75;;;24.00;99.90;;;;;;5066919;28;20028;-73
2021/03/29 08:08:42;;;;;;;15.88;9.18;;;23.70;99.90;;;;;;5069044;28;20485;-73
2021/03/29 08:11:14;;;;;;;19.67;9.38;;;23.60;99.90;;;;;;5068559;28;20040;-73
2021/03/29 08:13:48;;;;;;;12.05;8.15;;;23.60;99.90;;;;;;5069687;28;20062;-73
2021/03/29 08:16:17;;;;;;;15.80;9.13;;;23.60;99.90;;;;;;5069348;28;20520;-73
2021/03/29 08:19:14;;;;;;;21.02;10.38;;;23.70;99.90;;;;;;5070011;28;20080;-72
2021/03/29 08:22:04;;;;;;;19.58;10.70;;;23.90;99.90;;;;;;5070134;28;20115;-73
2021/03/29 08:24:30;;;;;;;29.10;12.15;;;24.20;99.90;;;;;;5069982;28;20127;-73
2021/03/29 08:27:01;;;;;;;25.02;12.07;;;24.80;99.90;;;;;;5073654;28;20078;-74
2021/03/29 08:29:33;;;;;;;30.38;10.48;;;25.20;99.90;;;;;;5073996;28;20032;-73
2021/03/29 08:31:59;;;;;;;17.10;10.35;;;25.60;99.90;;;;;;5073497;28;20056;-73
2021/03/29 08:34:30;;;;;;;18.65;10.05;;;25.70;99.90;;;;;;5051667;28;20025;-73
2021/03/29 08:37:01;;;;;;;17.97;9.57;;;25.90;99.90;;;;;;5073294;28;20448;-73
2021/03/29 08:39:31;;;;;;;15.23;10.60;;;25.90;99.90;;;;;;5073034;28;20094;-73
2021/03/29 08:41:58;;;;;;;23.70;10.90;;;25.90;99.90;;;;;;5071911;28;21212;-73
2021/03/29 08:44:25;;;;;;;28.52;12.43;;;25.90;99.90;;;;;;5072619;28;20032;-73
2021/03/29 08:46:52;;;;;;;32.50;13.77;;;;;;;;;;5069733;28;20020;-76
2021/03/29 08:49:18;;;;;;;22.80;11.40;;;26.40;99.90;;;;;;5070657;28;20083;-75
2021/03/29 08:51:44;;;;;;;17.05;10.25;;;26.50;99.90;;;;;;5073460;28;20053;-76
2021/03/29 08:54:11;;;;;;;14.23;10.77;;;26.70;99.50;;;;;;5067708;28;20040;-75
2021/03/29 08:56:45;;;;;;;16.08;10.25;;;26.50;99.50;;;;;;5067904;28;20033;-75
2021/03/29 08:59:11;;;;;;;18.30;11.05;;;26.20;99.90;;;;;;5068691;28;20123;-77
2021/03/29 09:01:41;;;;;;;21.33;10.60;;;26.00;99.50;;;;;;5067320;28;20104;-76
2021/03/29 09:04:12;;;;;;;15.50;9.98;;;25.70;99.90;;;;;;5061999;28;20048;-74
2021/03/29 09:06:38;;;;;;;16.58;10.40;;;25.80;99.50;;;;;;5068226;28;20021;-73
2021/03/29 09:09:14;;;;;;;17.88;10.23;;;25.80;99.40;;;;;;5070526;28;20048;-73
2021/03/29 09:11:41;;;;;;;15.93;11.00;;;26.00;99.50;;;;;;5070823;28;20032;-74
2021/03/29 09:14:09;;;;;;;14.55;10.68;;;26.00;99.50;;;;;;5070318;28;20032;-73
2021/03/29 09:16:35;;;;;;;17.88;13.25;;;26.00;99.40;;;;;;5072079;28;20025;-73
2021/03/29 09:19:33;;;;;;;29.58;15.18;;;25.80;99.40;;;;;;5074689;28;20041;-75
2021/03/29 09:22:02;;;;;;;25.25;13.88;;;25.60;99.90;;;;;;5043474;28;20113;-75
2021/03/29 09:24:29;;;;;;;36.42;14.48;;;25.50;99.50;;;;;;5067214;28;20477;-74
2021/03/29 09:27:10;;;;;;;27.92;14.30;;;25.30;99.90;;;;;;5072482;28;20031;-77
2021/03/29 09:29:41;;;;;;;24.25;13.98;;;25.40;99.90;;;;;;5071704;28;20082;-75
2021/03/29 09:32:14;;;;;;;23.00;14.27;;;25.40;99.90;;;;;;5072681;28;20032;-76
2021/03/29 09:34:45;;;;;;;18.58;13.82;;;25.40;99.80;;;;;;5073278;28;20055;-76
2021/03/29 09:37:25;;;;;;;27.45;13.23;;;25.30;99.90;;;;;;5071896;28;20032;-76
2021/03/29 09:40:04;;;;;;;33.85;13.38;;;25.20;99.90;;;;;;5069220;28;20036;-78
2021/03/29 09:42:36;;;;;;;19.27;11.75;;;24.90;99.90;;;;;;5071336;28;20025;-76
2021/03/29 09:45:02;;;;;;;;;;;24.70;99.90;;;;;;5070847;28;20033;-77
2021/03/29 09:47:30;;;;;;;17.67;12.07;;;24.80;99.90;;;;;;5070470;28;19912;-77
2021/03/29 09:49:56;;;;;;;28.05;13.82;;;24.90;99.90;;;;;;5069630;28;20033;-77
2021/03/29 09:52:34;;;;;;;24.30;13.55;;;24.90;99.80;;;;;;5067966;28;20127;-77
2021/03/29 09:55:00;;;;;;;27.95;12.50;;;24.90;99.90;;;;;;5071551;28;20037;-77
2021/03/29 09:57:44;;;;;;;25.17;13.20;;;24.80;99.90;;;;;;5064697;27;20389;-76
2021/03/29 10:00:34;;;;;;;23.90;13.15;;;24.70;99.90;;;;;;5056418;28;20029;-77
2021/03/29 10:03:00;;;;;;;18.95;11.77;;;24.70;99.90;;;;;;5054486;28;20017;-75
2021/03/29 10:05:34;;;;;;;16.60;10.98;;;24.80;99.90;;;;;;5050032;28;20029;-76
2021/03/29 10:08:00;;;;;;;24.13;11.25;;;24.70;99.50;;;;;;5052903;28;20104;-75
2021/03/29 10:10:30;;;;;;;17.00;10.65;;;24.80;99.20;;;;;;5051927;28;20116;-77
2021/03/29 10:13:06;;;;;;;25.42;11.68;;;24.60;99.30;;;;;;5052793;28;20033;-76
2021/03/29 10:15:34;;;;;;;20.55;11.77;;;24.40;99.60;;;;;;5054809;28;20028;-76
2021/03/29 10:18:30;;;;;;;18.52;11.25;;;24.20;99.50;;;;;;5053587;28;20029;-76
2021/03/29 10:21:03;;;;;;;20.70;11.18;;;23.90;99.80;;;;;;5053934;28;20024;-75
2021/03/29 10:23:30;;;;;;;21.40;11.15;;;23.50;99.90;;;;;;5051302;28;20032;-75
2021/03/29 10:26:28;;;;;;;21.48;11.60;;;23.20;99.90;;;;;;5052215;28;20079;-75
2021/03/29 10:29:00;;;;;;;18.33;11.25;;;23.20;99.90;;;;;;5053897;28;20017;-77
2021/03/29 10:31:28;;;;;;;26.25;12.23;;;23.20;99.90;;;;;;5053660;28;20025;-76
2021/03/29 10:33:54;;;;;;;19.73;10.75;;;23.20;99.90;;;;;;5048541;28;20025;-77
2021/03/29 10:36:21;;;;;;;23.45;12.02;;;23.30;99.90;;;;;;5058885;28;20021;-75
2021/03/29 10:38:48;;;;;;;17.73;10.55;;;23.10;99.90;;;;;;5052488;28;20074;-75
2021/03/29 10:41:14;;;;;;;14.40;10.82;;;23.10;99.90;;;;;;5049721;28;20039;-75
2021/03/29 10:43:40;;;;;;;19.65;11.40;;;23.10;99.90;;;;;;5052950;28;20525;-77
2021/03/29 10:46:06;;;;;;;17.42;10.88;;;22.90;99.90;;;;;;5055762;28;20417;-76
2021/03/29 10:48:32;;;;;;;21.27;12.25;;;22.90;99.90;;;;;;5058926;28;20029;-76
2021/03/29 10:51:00;;;;;;;25.17;11.98;;;22.80;99.90;;;;;;5051694;28;20066;-75
2021/03/29 10:53:26;;;;;;;15.73;10.07;;;22.70;99.90;;;;;;5049157;28;20110;-75
2021/03/29 10:55:52;;;;;;;20.55;12.27;;;22.60;99.90;;;;;;5051131;28;20055;-75
2021/03/29 10:58:18;;;;;;;25.40;12.95;;;22.60;99.90;;;;;;5051881;28;20020;-75
2021/03/29 11:00:43;;;;;;;21.08;11.05;;;22.50;99.90;;;;;;5048723;28;20035;-76
2021/03/29 11:03:09;;;;;;;17.08;10.70;;;22.40;99.90;;;;;;5050056;28;20026;-74
2021/03/29 11:05:35;;;;;;;18.77;12.05;;;22.30;99.90;;;;;;5052396;28;20096;-74
2021/03/29 11:08:01;;;;;;;22.60;12.27;;;22.30;99.90;;;;;;5042666;28;20036;-75
2021/03/29 11:10:27;;;;;;;29.10;12.60;;;22.20;99.90;;;;;;5034044;28;20025;-74
2021/03/29 11:12:52;;;;;;;25.25;11.93;;;22.30;99.90;;;;;;5036085;28;20429;-75
2021/03/29 11:15:18;;;;;;;24.17;12.48;;;22.20;99.90;;;;;;5037201;28;20045;-74
2021/03/29 11:17:44;;;;;;;18.83;11.65;;;22.20;99.90;;;;;;5034870;28;20033;-74
2021/03/29 11:20:11;;;;;;;22.58;11.68;;;22.20;99.90;;;;;;5036986;28;20498;-74
2021/03/29 11:22:37;;;;;;;20.13;12.80;;;22.20;99.90;;;;;;5035566;28;20025;-74
2021/03/29 11:25:05;;;;;;;19.92;10.52;;;22.10;99.90;;;;;;5045201;28;20033;-74
2021/03/29 11:27:31;;;;;;;21.52;12.20;;;21.90;99.90;;;;;;5052938;28;20017;-75
2021/03/29 11:29:57;;;;;;;23.30;12.10;;;21.90;99.90;;;;;;5041440;28;20709;-74
2021/03/29 11:32:22;;;;;;;22.92;12.80;;;21.80;99.90;;;;;;5034491;28;20037;-75
2021/03/29 11:34:48;;;;;;;30.00;12.65;;;21.90;99.90;;;;;;5038397;28;20025;-74
2021/03/29 11:37:14;;;;;;;18.52;12.73;;;21.80;99.90;;;;;;5036072;28;20112;-74
2021/03/29 11:39:39;;;;;;;28.52;13.73;;;21.70;99.90;;;;;;5037736;28;20467;-74
2021/03/29 11:42:05;;;;;;;19.88;12.00;;;21.50;99.90;;;;;;5036142;28;20025;-75
2021/03/29 11:44:31;;;;;;;28.70;13.82;;;21.40;99.90;;;;;;5035411;28;20109;-74
2021/03/29 11:46:57;;;;;;;29.60;13.32;;;21.40;99.90;;;;;;5041049;28;20021;-74
2021/03/29 11:49:22;;;;;;;19.05;11.60;;;21.40;99.90;;;;;;5036587;28;20109;-74
2021/03/29 11:51:48;;;;;;;21.40;13.15;;;21.30;99.90;;;;;;5035256;28;20535;-74
2021/03/29 11:54:14;;;;;;;23.80;12.77;;;21.20;99.90;;;;;;5047485;28;20119;-77
2021/03/29 11:56:39;;;;;;;20.23;11.77;;;21.20;99.90;;;;;;5038218;28;20061;-76
2021/03/29 11:59:06;;;;;;;18.38;11.93;;;21.20;99.90;;;;;;5042104;28;20057;-76
2021/03/29 12:01:55;;;;;;;20.13;11.60;;;21.10;99.90;;;;;;5038816;28;20029;-77
2021/03/29 12:04:26;;;;;;;19.25;12.27;;;21.20;99.90;;;;;;5044128;28;20104;-75
2021/03/29 12:07:06;;;;;;;22.92;11.70;;;21.00;99.90;;;;;;5037292;28;20029;-79
2021/03/29 12:12:01;;;;;;;20.23;11.48;;;20.70;99.90;;;;;;5040892;28;20029;-78
2021/03/29 12:14:38;;;;;;;23.35;13.35;;;20.50;99.90;;;;;;5045038;28;20489;-79
2021/03/29 12:17:09;;;;;;;22.98;11.93;;;20.30;99.90;;;;;;5050842;28;20040;-72
2021/03/29 12:19:36;;;;;;;;;;;20.20;99.90;;;;;;5035507;28;20160;-74
2021/03/29 12:22:10;;;;;;;25.38;12.48;;;20.10;99.90;;;;;;5032056;28;19908;-72
2021/03/29 12:24:39;;;;;;;27.40;12.73;;;20.00;99.90;;;;;;5043312;28;20030;-72
2021/03/29 12:27:06;;;;;;;19.48;11.60;;;19.90;99.90;;;;;;5036230;28;20014;-72
2021/03/29 12:29:40;;;;;;;23.55;11.43;;;19.80;99.90;;;;;;5044976;28;20116;-70
2021/03/29 12:32:18;;;;;;;23.90;11.27;;;19.70;99.90;;;;;;5033380;28;20033;-71
2021/03/29 12:34:54;;;;;;;24.20;12.00;;;19.80;99.90;;;;;;5049614;28;20388;-73
2021/03/29 12:37:23;;;;;;;19.30;11.02;;;19.70;99.90;;;;;;5047932;28;20045;-73
2021/03/29 12:40:02;;;;;;;19.17;11.85;;;19.80;99.90;;;;;;5052246;28;20021;-72
2021/03/29 12:42:49;;;;;;;16.38;10.90;;;19.80;99.90;;;;;;5053009;28;20024;-73